Rosa Maersk — OVST2 — position and weather

sailwx.info

Track history (hours):
 
Tides and Currents Weather Stations Pressure Air Temp Water Temp Dewpoint Dewpoint Depression Visibility Wind Speed Wind Dir Waves Ship Positions

Rosa Maersk

Last reported at 2014-Sep-30 16:08 UTC. Time now 2014-Oct-01 18:28 UTC.
Position N 52°09' E 003°33'.

Length 172 m; draft 7.2 m.

Type: Tanker. MMSI: 220288000.

Date/timePositionNaut miles runAvg speedWind from/ knotsBaromVisibWave heightAir tempDewpointWater temp
2014-Sep-30 16:08N 52°09' E 003°33'0 0.0
2014-Sep-30 15:26N 52°09' E 003°33'1 0.0
2014-Sep-29 22:33N 52°09' E 003°32'10 9.5
2014-Sep-29 21:32N 52°12' E 003°18'2712.0
2014-Sep-29 19:16N 52°36' E 002°57'21 7.6
2014-Sep-29 16:28N 52°55' E 002°40'8 7.2
2014-Sep-29 15:22N 53°01' E 002°31'6 7.7
2014-Sep-29 14:33N 53°05' E 002°24'8 8.0
2014-Sep-29 13:33N 53°11' E 002°14'9 8.5
2014-Sep-29 12:33N 53°17' E 002°05'9 9.1
2014-Sep-29 11:33N 53°24' E 001°54'9 9.1
2014-Sep-29 10:33N 53°31' E 001°45'38 7.6
2014-Sep-29 05:33N 53°34' E 000°41'8 8.4
2014-Sep-29 04:33N 53°32' E 000°27'8 8.0
2014-Sep-29 03:33N 53°32' E 000°14'10 9.7
2014-Sep-29 02:33N 53°37' W 000°01'6 5.3
2014-Sep-29 01:28N 53°38' W 000°10'0 0.0
2014-Sep-29 00:22N 53°38' W 000°10'0 0.0
2014-Sep-28 23:28N 53°38' W 000°10'0 0.0
2014-Sep-28 22:31N 53°38' W 000°10'0 0.0
2014-Sep-28 21:28N 53°38' W 000°10'0 0.0
2014-Sep-28 20:28N 53°38' W 000°10'0 0.0
2014-Sep-28 19:31N 53°38' W 000°10'0 0.0
2014-Sep-28 18:22N 53°38' W 000°10'0 0.0
2014-Sep-28 17:25N 53°38' W 000°10'0 0.0
2014-Sep-28 16:31N 53°38' W 000°10'0 0.0
2014-Sep-28 15:28N 53°38' W 000°10'0 0.0
2014-Sep-28 14:28N 53°38' W 000°10'0 0.0
2014-Sep-28 13:28N 53°38' W 000°10'0 0.0
2014-Sep-28 12:28N 53°38' W 000°10'0 0.0
2014-Sep-28 11:34N 53°38' W 000°10'0 0.0
2014-Sep-28 10:33N 53°38' W 000°10'0 0.0
2014-Sep-28 09:33N 53°38' W 000°10'0 0.0
2014-Sep-28 08:27N 53°38' W 000°10'0 0.0
2014-Sep-28 07:12N 53°38' W 000°10'0 0.0
2014-Sep-28 06:27N 53°38' W 000°10'0 0.0
2014-Sep-28 05:33N 53°38' W 000°10'0 0.0
2014-Sep-28 04:27N 53°38' W 000°10'0 0.0
2014-Sep-28 03:33N 53°38' W 000°10'0 0.0
2014-Sep-28 02:30N 53°38' W 000°10'0 0.0
2014-Sep-28 01:33N 53°38' W 000°10'0 0.0
2014-Sep-28 00:34N 53°38' W 000°10'0 0.0
2014-Sep-27 23:33N 53°38' W 000°10'0 0.0
2014-Sep-27 22:18N 53°38' W 000°10'0 0.0
2014-Sep-27 21:27N 53°38' W 000°10'0 0.0
2014-Sep-27 20:30N 53°38' W 000°10'0 0.0
2014-Sep-27 19:33N 53°38' W 000°10'0 0.0
2014-Sep-27 18:33N 53°38' W 000°10'0 0.0
2014-Sep-27 17:33N 53°38' W 000°10'0 0.0
2014-Sep-27 16:09N 53°38' W 000°10'0 0.0
2014-Sep-27 15:33N 53°38' W 000°10'0 0.0
2014-Sep-27 14:33N 53°38' W 000°10'0 0.0
2014-Sep-27 13:33N 53°38' W 000°10'0 0.0
2014-Sep-27 12:21N 53°38' W 000°10'0 0.0
2014-Sep-27 11:21N 53°38' W 000°10'0 0.0
2014-Sep-27 10:27N 53°38' W 000°10'0 0.0
2014-Sep-27 09:27N 53°38' W 000°10'0 0.0
2014-Sep-27 08:33N 53°38' W 000°10'0 0.1
2014-Sep-27 07:34N 53°38' W 000°10'5 5.4
2014-Sep-27 06:33N 53°37' W 000°01'9 9.4
2014-Sep-27 05:33N 53°33' E 000°14'9 9.3
2014-Sep-27 04:33N 53°41' E 000°23'4 2.0
2014-Sep-27 02:23N 53°45' E 000°26'0 0.1
2014-Sep-27 01:23N 53°45' E 000°26'0 0.0
2014-Sep-27 00:23N 53°45' E 000°26'0 0.0
2014-Sep-26 23:19N 53°45' E 000°26'0 0.1
2014-Sep-26 21:10N 53°45' E 000°26'0 0.1
2014-Sep-26 17:17N 53°44' E 000°26'5 7.1
2014-Sep-26 16:33N 53°44' E 000°35'1311.8
2014-Sep-26 15:27N 53°46' E 000°57'138 9.9
2014-Sep-26 01:33N 51°38' E 002°24'1313.0
2014-Sep-26 00:32N 51°28' E 002°11'1111.7
2014-Sep-25 23:33N 51°17' E 002°07'1111.0
2014-Sep-25 22:33N 51°10' E 001°53'1010.4
2014-Sep-25 21:34N 51°03' E 001°40'46 9.2
2014-Sep-25 16:31N 50°28' E 000°54'1410.5
2014-Sep-25 15:12N 50°24' E 000°32'31710.3
2014-Sep-24 08:25N 51°24' W 007°42'1012.0
2014-Sep-24 07:33N 51°31' W 007°53'1212.1
2014-Sep-24 06:33N 51°40' W 008°07'1110.6
2014-Sep-24 05:33N 51°49' W 008°16'1 1.0
2014-Sep-24 04:31N 51°50' W 008°16'0 0.0
2014-Sep-24 03:31N 51°50' W 008°16'0 0.0
2014-Sep-24 02:31N 51°50' W 008°16'0 0.0
2014-Sep-24 01:34N 51°50' W 008°16'0 0.0
2014-Sep-24 00:33N 51°50' W 008°16'0 0.0
2014-Sep-23 23:30N 51°50' W 008°16'0 0.0
2014-Sep-23 22:33N 51°50' W 008°16'0 0.0
2014-Sep-23 21:33N 51°50' W 008°16'0 0.0
2014-Sep-23 20:33N 51°50' W 008°16'0 0.0
2014-Sep-23 19:33N 51°50' W 008°16'0 0.0
2014-Sep-23 18:33N 51°50' W 008°16'0 0.0
2014-Sep-23 17:33N 51°50' W 008°16'0 0.0
2014-Sep-23 16:30N 51°50' W 008°16'0 0.0
2014-Sep-23 15:33N 51°50' W 008°16'0 0.0
2014-Sep-23 14:33N 51°50' W 008°16'0 0.0
2014-Sep-23 13:33N 51°50' W 008°16'0 0.0
2014-Sep-23 12:33N 51°50' W 008°16'0 0.0
2014-Sep-23 11:33N 51°50' W 008°16'0 0.0
2014-Sep-23 10:33N 51°50' W 008°16'0 0.0
2014-Sep-23 09:33N 51°50' W 008°16'0 0.0
2014-Sep-23 08:33N 51°50' W 008°16'0 0.0
2014-Sep-23 07:33N 51°50' W 008°16'0 0.0
2014-Sep-23 06:33N 51°50' W 008°16'0 0.0
2014-Sep-23 05:33N 51°50' W 008°16'0 0.0
2014-Sep-23 04:33N 51°50' W 008°16'0 0.0
2014-Sep-23 03:33N 51°50' W 008°16'0 0.0
2014-Sep-23 02:33N 51°50' W 008°16'0 0.0
2014-Sep-23 01:33N 51°50' W 008°16'0 0.0
2014-Sep-23 00:33N 51°50' W 008°16'0 0.0
2014-Sep-22 23:33N 51°50' W 008°16'0 0.0
2014-Sep-22 22:33N 51°50' W 008°16'0 0.0
2014-Sep-22 21:33N 51°50' W 008°16'0 0.0
2014-Sep-22 20:33N 51°50' W 008°16'0 0.0
2014-Sep-22 19:33N 51°50' W 008°16'0 0.0
2014-Sep-22 18:33N 51°50' W 008°16'1 1.0
2014-Sep-22 17:33N 51°49' W 008°16'6 6.3
2014-Sep-22 16:33N 51°44' W 008°10'1 0.9
2014-Sep-22 15:33N 51°43' W 008°10'1 1.3
2014-Sep-22 14:33N 51°45' W 008°10'3 2.9
2014-Sep-22 13:33N 51°42' W 008°07'9 9.1
2014-Sep-22 12:33N 51°35' W 007°58'1312.7
2014-Sep-22 11:33N 51°26' W 007°44'1812.9
2014-Sep-22 10:09N 51°14' W 007°23'812.9
2014-Sep-22 09:32N 51°08' W 007°14'1211.0
2014-Sep-22 08:26N 50°60' W 006°60'218 7.7
2014-Sep-21 04:18N 50°17' W 001°23'36 9.6
2014-Sep-21 00:33N 50°26' W 000°29'1110.1
2014-Sep-20 23:29N 50°29' W 000°12'18 9.4
2014-Sep-20 21:33N 50°34' E 000°15'8 8.4
2014-Sep-20 20:33N 50°36' E 000°28'8 7.6
2014-Sep-20 19:33N 50°39' E 000°39'10 7.9
2014-Sep-20 18:19N 50°45' E 000°51'7 8.5
2014-Sep-20 17:33N 50°49' E 000°59'  
Track history (hours):
 
Tides and Currents Weather Stations Pressure Air Temp Water Temp Dewpoint Dewpoint Depression Visibility Wind Speed Wind Dir Waves Ship Positions

Rosa Maersk

Last reported at 2014-Sep-30 16:08 UTC. Time now 2014-Oct-01 18:28 UTC.
Position N 52°09' E 003°33'.

Length 172 m; draft 7.2 m.

Type: Tanker. MMSI: 220288000.

Date/timePositionNaut miles runAvg speedWind from/ knotsBaromVisibWave heightAir tempDewpointWater temp
2014-Sep-30 16:08N 52°09' E 003°33'0 0.0
2014-Sep-30 15:26N 52°09' E 003°33'1 0.0
2014-Sep-29 22:33N 52°09' E 003°32'10 9.5
2014-Sep-29 21:32N 52°12' E 003°18'2712.0
2014-Sep-29 19:16N 52°36' E 002°57'21 7.6
2014-Sep-29 16:28N 52°55' E 002°40'8 7.2
2014-Sep-29 15:22N 53°01' E 002°31'6 7.7
2014-Sep-29 14:33N 53°05' E 002°24'8 8.0
2014-Sep-29 13:33N 53°11' E 002°14'9 8.5
2014-Sep-29 12:33N 53°17' E 002°05'9 9.1
2014-Sep-29 11:33N 53°24' E 001°54'9 9.1
2014-Sep-29 10:33N 53°31' E 001°45'38 7.6
2014-Sep-29 05:33N 53°34' E 000°41'8 8.4
2014-Sep-29 04:33N 53°32' E 000°27'8 8.0
2014-Sep-29 03:33N 53°32' E 000°14'10 9.7
2014-Sep-29 02:33N 53°37' W 000°01'6 5.3
2014-Sep-29 01:28N 53°38' W 000°10'0 0.0
2014-Sep-29 00:22N 53°38' W 000°10'0 0.0
2014-Sep-28 23:28N 53°38' W 000°10'0 0.0
2014-Sep-28 22:31N 53°38' W 000°10'0 0.0
2014-Sep-28 21:28N 53°38' W 000°10'0 0.0
2014-Sep-28 20:28N 53°38' W 000°10'0 0.0
2014-Sep-28 19:31N 53°38' W 000°10'0 0.0
2014-Sep-28 18:22N 53°38' W 000°10'0 0.0
2014-Sep-28 17:25N 53°38' W 000°10'0 0.0
2014-Sep-28 16:31N 53°38' W 000°10'0 0.0
2014-Sep-28 15:28N 53°38' W 000°10'0 0.0
2014-Sep-28 14:28N 53°38' W 000°10'0 0.0
2014-Sep-28 13:28N 53°38' W 000°10'0 0.0
2014-Sep-28 12:28N 53°38' W 000°10'0 0.0
2014-Sep-28 11:34N 53°38' W 000°10'0 0.0
2014-Sep-28 10:33N 53°38' W 000°10'0 0.0
2014-Sep-28 09:33N 53°38' W 000°10'0 0.0
2014-Sep-28 08:27N 53°38' W 000°10'0 0.0
2014-Sep-28 07:12N 53°38' W 000°10'0 0.0
2014-Sep-28 06:27N 53°38' W 000°10'0 0.0
2014-Sep-28 05:33N 53°38' W 000°10'0 0.0
2014-Sep-28 04:27N 53°38' W 000°10'0 0.0
2014-Sep-28 03:33N 53°38' W 000°10'0 0.0
2014-Sep-28 02:30N 53°38' W 000°10'0 0.0
2014-Sep-28 01:33N 53°38' W 000°10'0 0.0
2014-Sep-28 00:34N 53°38' W 000°10'0 0.0
2014-Sep-27 23:33N 53°38' W 000°10'0 0.0
2014-Sep-27 22:18N 53°38' W 000°10'0 0.0
2014-Sep-27 21:27N 53°38' W 000°10'0 0.0
2014-Sep-27 20:30N 53°38' W 000°10'0 0.0
2014-Sep-27 19:33N 53°38' W 000°10'0 0.0
2014-Sep-27 18:33N 53°38' W 000°10'0 0.0
2014-Sep-27 17:33N 53°38' W 000°10'0 0.0
2014-Sep-27 16:09N 53°38' W 000°10'0 0.0
2014-Sep-27 15:33N 53°38' W 000°10'0 0.0
2014-Sep-27 14:33N 53°38' W 000°10'0 0.0
2014-Sep-27 13:33N 53°38' W 000°10'0 0.0
2014-Sep-27 12:21N 53°38' W 000°10'0 0.0
2014-Sep-27 11:21N 53°38' W 000°10'0 0.0
2014-Sep-27 10:27N 53°38' W 000°10'0 0.0
2014-Sep-27 09:27N 53°38' W 000°10'0 0.0
2014-Sep-27 08:33N 53°38' W 000°10'0 0.1
2014-Sep-27 07:34N 53°38' W 000°10'5 5.4
2014-Sep-27 06:33N 53°37' W 000°01'9 9.4
2014-Sep-27 05:33N 53°33' E 000°14'9 9.3
2014-Sep-27 04:33N 53°41' E 000°23'4 2.0
2014-Sep-27 02:23N 53°45' E 000°26'0 0.1
2014-Sep-27 01:23N 53°45' E 000°26'0 0.0
2014-Sep-27 00:23N 53°45' E 000°26'0 0.0
2014-Sep-26 23:19N 53°45' E 000°26'0 0.1
2014-Sep-26 21:10N 53°45' E 000°26'0 0.1
2014-Sep-26 17:17N 53°44' E 000°26'5 7.1
2014-Sep-26 16:33N 53°44' E 000°35'1311.8
2014-Sep-26 15:27N 53°46' E 000°57'138 9.9
2014-Sep-26 01:33N 51°38' E 002°24'1313.0
2014-Sep-26 00:32N 51°28' E 002°11'1111.7
2014-Sep-25 23:33N 51°17' E 002°07'1111.0
2014-Sep-25 22:33N 51°10' E 001°53'1010.4
2014-Sep-25 21:34N 51°03' E 001°40'46 9.2
2014-Sep-25 16:31N 50°28' E 000°54'1410.5
2014-Sep-25 15:12N 50°24' E 000°32'31710.3
2014-Sep-24 08:25N 51°24' W 007°42'1012.0
2014-Sep-24 07:33N 51°31' W 007°53'1212.1
2014-Sep-24 06:33N 51°40' W 008°07'1110.6
2014-Sep-24 05:33N 51°49' W 008°16'1 1.0
2014-Sep-24 04:31N 51°50' W 008°16'0 0.0
2014-Sep-24 03:31N 51°50' W 008°16'0 0.0
2014-Sep-24 02:31N 51°50' W 008°16'0 0.0
2014-Sep-24 01:34N 51°50' W 008°16'0 0.0
2014-Sep-24 00:33N 51°50' W 008°16'0 0.0
2014-Sep-23 23:30N 51°50' W 008°16'0 0.0
2014-Sep-23 22:33N 51°50' W 008°16'0 0.0
2014-Sep-23 21:33N 51°50' W 008°16'0 0.0
2014-Sep-23 20:33N 51°50' W 008°16'0 0.0
2014-Sep-23 19:33N 51°50' W 008°16'0 0.0
2014-Sep-23 18:33N 51°50' W 008°16'0 0.0
2014-Sep-23 17:33N 51°50' W 008°16'0 0.0
2014-Sep-23 16:30N 51°50' W 008°16'0 0.0
2014-Sep-23 15:33N 51°50' W 008°16'0 0.0
2014-Sep-23 14:33N 51°50' W 008°16'0 0.0
2014-Sep-23 13:33N 51°50' W 008°16'0 0.0
2014-Sep-23 12:33N 51°50' W 008°16'0 0.0
2014-Sep-23 11:33N 51°50' W 008°16'0 0.0
2014-Sep-23 10:33N 51°50' W 008°16'0 0.0
2014-Sep-23 09:33N 51°50' W 008°16'0 0.0
2014-Sep-23 08:33N 51°50' W 008°16'0 0.0
2014-Sep-23 07:33N 51°50' W 008°16'0 0.0
2014-Sep-23 06:33N 51°50' W 008°16'0 0.0
2014-Sep-23 05:33N 51°50' W 008°16'0 0.0
2014-Sep-23 04:33N 51°50' W 008°16'0 0.0
2014-Sep-23 03:33N 51°50' W 008°16'0 0.0
2014-Sep-23 02:33N 51°50' W 008°16'0 0.0
2014-Sep-23 01:33N 51°50' W 008°16'0 0.0
2014-Sep-23 00:33N 51°50' W 008°16'0 0.0
2014-Sep-22 23:33N 51°50' W 008°16'0 0.0
2014-Sep-22 22:33N 51°50' W 008°16'0 0.0
2014-Sep-22 21:33N 51°50' W 008°16'0 0.0
2014-Sep-22 20:33N 51°50' W 008°16'0 0.0
2014-Sep-22 19:33N 51°50' W 008°16'0 0.0
2014-Sep-22 18:33N 51°50' W 008°16'1 1.0
2014-Sep-22 17:33N 51°49' W 008°16'6 6.3
2014-Sep-22 16:33N 51°44' W 008°10'1 0.9
2014-Sep-22 15:33N 51°43' W 008°10'1 1.3
2014-Sep-22 14:33N 51°45' W 008°10'3 2.9
2014-Sep-22 13:33N 51°42' W 008°07'9 9.1
2014-Sep-22 12:33N 51°35' W 007°58'1312.7
2014-Sep-22 11:33N 51°26' W 007°44'1812.9
2014-Sep-22 10:09N 51°14' W 007°23'812.9
2014-Sep-22 09:32N 51°08' W 007°14'1211.0
2014-Sep-22 08:26N 50°60' W 006°60'218 7.7
2014-Sep-21 04:18N 50°17' W 001°23'36 9.6
2014-Sep-21 00:33N 50°26' W 000°29'1110.1
2014-Sep-20 23:29N 50°29' W 000°12'18 9.4
2014-Sep-20 21:33N 50°34' E 000°15'8 8.4
2014-Sep-20 20:33N 50°36' E 000°28'8 7.6
2014-Sep-20 19:33N 50°39' E 000°39'10 7.9
2014-Sep-20 18:19N 50°45' E 000°51'7 8.5
2014-Sep-20 17:33N 50°49' E 000°59'  

Dump ship's entire track history